Time;durP1;ratioP1;P1;durP2;ratioP2;P2;SDS_P1;SDS_P2;PMS_P1;PMS_P2;Temp;Humidity;BMP_temperature;BMP_pressure;BME280_temperature;BME280_humidity;BME280_pressure;Samples;Min_cycle;Max_cycle;Signal;HPM_P1;HPM_P2
2024/04/17 00:00:15;;;;;;;9.65;6.57;;;;;;;6.07;100.00;100651.81;10794067;26;20006;-73
2024/04/17 00:05:12;;;;;;;10.98;6.22;;;;;;;6.11;100.00;100653.66;10771835;26;20087;-73
2024/04/17 00:10:09;;;;;;;7.28;6.18;;;;;;;6.21;100.00;100662.78;10874728;26;20020;-73
2024/04/17 00:15:06;;;;;;;10.05;6.13;;;;;;;6.10;100.00;100662.91;10793042;26;20481;-72
2024/04/17 00:20:04;;;;;;;13.05;5.72;;;;;;;6.20;100.00;100651.13;10788019;26;20090;-72
2024/04/17 00:25:01;;;;;;;7.22;6.10;;;;;;;6.10;100.00;100646.63;10793168;26;20355;-72
2024/04/17 00:29:58;;;;;;;7.65;5.88;;;;;;;6.07;100.00;100657.25;10883900;26;20016;-72
2024/04/17 00:34:55;;;;;;;9.20;6.03;;;;;;;5.92;100.00;100647.34;10852943;26;20044;-72
2024/04/17 00:39:52;;;;;;;10.32;6.88;;;;;;;5.99;100.00;100650.56;10858514;26;20019;-71
2024/04/17 00:44:49;;;;;;;10.07;6.68;;;;;;;5.90;100.00;100649.53;10855229;26;20094;-72
2024/04/17 00:49:46;;;;;;;6.53;5.72;;;;;;;5.85;100.00;100644.19;10864170;26;20005;-72
2024/04/17 00:54:44;;;;;;;9.73;6.90;;;;;;;5.80;100.00;100647.75;10858268;26;19998;-72
2024/04/17 00:59:43;;;;;;;8.43;6.63;;;;;;;5.79;100.00;100651.53;10847285;26;20086;-72
2024/04/17 01:04:40;;;;;;;8.30;6.60;;;;;;;5.89;100.00;100643.31;10855458;26;20337;-74
2024/04/17 01:09:37;;;;;;;6.97;6.10;;;;;;;6.03;100.00;100645.34;10862401;26;20012;-74
2024/04/17 01:14:35;;;;;;;10.00;6.38;;;;;;;5.96;100.00;100650.31;10891867;26;20001;-72
2024/04/17 01:19:32;;;;;;;11.77;7.05;;;;;;;5.93;100.00;100634.59;10859481;26;20017;-72
2024/04/17 01:24:29;;;;;;;8.02;5.93;;;;;;;5.97;100.00;100641.88;10854766;26;20009;-72
2024/04/17 01:29:26;;;;;;;9.07;6.43;;;;;;;5.88;100.00;100644.38;10798129;26;20010;-72
2024/04/17 01:34:25;;;;;;;6.97;6.20;;;;;;;5.83;100.00;100646.34;10855860;26;20004;-72
2024/04/17 01:39:23;;;;;;;8.70;6.30;;;;;;;5.70;100.00;100643.22;10767216;26;20124;-71
2024/04/17 01:44:22;;;;;;;7.65;6.32;;;;;;;5.63;100.00;100653.59;10833314;26;20079;-72
2024/04/17 01:49:26;;;;;;;8.50;6.97;;;;;;;5.48;100.00;100651.03;10786256;26;20028;-71
2024/04/17 01:54:24;;;;;;;7.80;7.00;;;;;;;5.42;100.00;100663.03;10781564;26;20006;-71
2024/04/17 01:59:21;;;;;;;7.95;6.43;;;;;;;5.47;100.00;100657.53;10791166;26;20374;-72
2024/04/17 02:04:18;;;;;;;7.00;6.30;;;;;;;5.40;100.00;100648.94;10795630;26;20005;-73
2024/04/17 02:09:15;;;;;;;9.35;6.63;;;;;;;5.28;100.00;100652.81;10839539;26;20001;-73
2024/04/17 02:14:12;;;;;;;8.13;6.93;;;;;;;5.31;100.00;100651.44;10806067;26;20484;-73
2024/04/17 02:19:10;;;;;;;8.00;6.30;;;;;;;5.22;100.00;100642.28;10765094;26;20024;-73
2024/04/17 02:24:07;;;;;;;8.40;6.82;;;;;;;5.17;100.00;100648.56;10795461;26;20080;-73
2024/04/17 02:29:04;;;;;;;9.07;7.05;;;;;;;5.07;100.00;100645.94;10790347;26;20031;-73
2024/04/17 02:34:01;;;;;;;9.45;7.47;;;;;;;4.99;100.00;100643.81;10842602;26;20593;-73
2024/04/17 02:38:58;;;;;;;7.97;6.53;;;;;;;4.91;100.00;100641.72;10848316;26;20080;-72
2024/04/17 02:43:55;;;;;;;10.65;6.93;;;;;;;4.94;100.00;100646.56;10783307;26;20475;-73
2024/04/17 02:48:52;;;;;;;9.70;6.63;;;;;;;4.82;100.00;100649.63;10774916;26;20336;-73
2024/04/17 02:53:49;;;;;;;12.88;7.57;;;;;;;4.67;100.00;100658.69;10783779;26;20059;-73
2024/04/17 02:58:46;;;;;;;9.93;7.00;;;;;;;4.70;100.00;100649.97;10786092;26;20014;-73
2024/04/17 03:03:44;;;;;;;8.68;7.72;;;;;;;4.62;100.00;100656.00;10778263;26;20005;-72
2024/04/17 03:08:41;;;;;;;8.23;7.40;;;;;;;4.55;100.00;100650.06;10780384;26;20491;-75
2024/04/17 03:13:38;;;;;;;8.20;6.68;;;;;;;4.52;100.00;100650.63;10767953;26;20412;-74
2024/04/17 03:18:35;;;;;;;8.70;6.97;;;;;;;4.51;100.00;100657.13;10786461;26;20005;-74
2024/04/17 03:23:32;;;;;;;9.70;7.18;;;;;;;4.38;100.00;100662.06;10790119;26;20163;-74
2024/04/17 03:28:29;;;;;;;8.07;7.22;;;;;;;4.37;100.00;100657.75;10799224;26;20089;-74
2024/04/17 03:33:27;;;;;;;9.90;7.68;;;;;;;4.38;100.00;100662.06;10842290;26;20017;-78
2024/04/17 03:38:26;;;;;;;8.07;7.28;;;;;;;4.42;100.00;100657.72;10808565;26;20007;-76
2024/04/17 03:43:23;;;;;;;12.60;7.93;;;;;;;4.36;100.00;100660.72;10803660;26;20041;-79
2024/04/17 03:48:20;;;;;;;9.02;7.55;;;;;;;4.30;100.00;100670.75;10775953;26;20330;-79
2024/04/17 03:53:17;;;;;;;8.85;7.57;;;;;;;4.34;100.00;100666.41;10843114;26;20463;-77
2024/04/17 03:58:15;;;;;;;8.63;7.07;;;;;;;4.42;100.00;100673.94;10796759;26;20083;-74
2024/04/17 04:03:12;;;;;;;11.48;7.90;;;;;;;4.46;100.00;100670.72;10768844;26;20456;-74
2024/04/17 04:08:09;;;;;;;10.70;7.28;;;;;;;4.47;100.00;100672.31;10841555;26;20335;-75
2024/04/17 04:13:06;;;;;;;8.90;7.55;;;;;;;4.61;100.00;100681.44;10814992;26;20010;-74
2024/04/17 04:18:03;;;;;;;7.78;6.85;;;;;;;4.51;100.00;100676.09;10769191;26;20470;-76
2024/04/17 04:23:01;;;;;;;7.90;6.70;;;;;;;4.40;100.00;100680.72;10766232;26;20338;-74
2024/04/17 04:27:58;;;;;;;12.40;6.70;;;;;;;4.51;100.00;100676.09;10773897;26;20002;-74
2024/04/17 04:32:55;;;;;;;7.38;6.28;;;;;;;4.43;100.00;100691.84;10764419;26;20024;-73
2024/04/17 04:37:52;;;;;;;10.30;7.05;;;;;;;4.53;100.00;100695.59;10783697;26;20327;-74
2024/04/17 04:42:50;;;;;;;12.38;7.80;;;;;;;4.38;100.00;100708.06;10803274;26;20044;-75
2024/04/17 04:47:47;;;;;;;13.30;8.25;;;;;;;4.34;100.00;100704.31;10802324;26;20523;-79
2024/04/17 04:52:44;;;;;;;8.65;7.22;;;;;;;4.51;100.00;100709.38;10805271;26;20050;-74
2024/04/17 04:57:41;;;;;;;8.50;7.22;;;;;;;4.39;100.00;100712.41;10813582;26;20019;-74
2024/04/17 05:02:38;;;;;;;8.73;7.00;;;;;;;4.39;100.00;100722.44;10820643;26;20006;-76
2024/04/17 05:07:36;;;;;;;7.95;7.15;;;;;;;4.52;100.00;100721.81;10797882;26;20986;-74
2024/04/17 05:12:33;;;;;;;9.60;7.32;;;;;;;4.63;100.00;100733.44;10825491;26;20422;-73
2024/04/17 05:17:30;;;;;;;9.23;7.43;;;;;;;4.62;100.00;100726.41;10863806;26;20082;-73
2024/04/17 05:22:27;;;;;;;7.40;6.60;;;;;;;4.73;100.00;100733.38;10829860;26;20006;-75
2024/04/17 05:27:24;;;;;;;7.88;7.07;;;;;;;4.76;100.00;100732.84;10823084;26;20019;-75
2024/04/17 05:32:21;;;;;;;7.20;6.53;;;;;;;4.77;100.00;100733.66;10823290;26;20004;-74
2024/04/17 05:37:18;;;;;;;7.55;6.55;;;;;;;4.76;100.00;100738.25;10778194;26;20466;-75
2024/04/17 05:42:16;;;;;;;7.85;6.75;;;;;;;4.77;100.00;100734.44;10785091;26;20005;-74
2024/04/17 05:47:13;;;;;;;8.63;6.57;;;;;;;4.82;100.00;100737.13;10779378;26;20013;-74
2024/04/17 05:52:10;;;;;;;6.78;6.05;;;;;;;4.91;100.00;100739.25;10801343;26;20038;-74
2024/04/17 05:57:07;;;;;;;8.23;6.28;;;;;;;4.91;100.00;100744.69;10802974;26;20020;-73
2024/04/17 06:02:04;;;;;;;7.43;6.22;;;;;;;4.96;100.00;100741.94;10816979;26;20457;-73
2024/04/17 06:07:01;;;;;;;8.20;6.47;;;;;;;5.16;100.00;100747.25;10833470;26;20466;-74
2024/04/17 06:11:59;;;;;;;6.05;5.55;;;;;;;5.22;100.00;100748.84;10789470;26;20022;-74
2024/04/17 06:16:56;;;;;;;6.35;5.75;;;;;;;5.38;100.00;100743.31;10811808;26;20016;-73
2024/04/17 06:21:53;;;;;;;10.30;6.18;;;;;;;5.55;100.00;100743.72;10817457;26;20010;-74
2024/04/17 06:26:50;;;;;;;7.65;5.30;;;;;;;5.68;100.00;100747.69;10788544;26;20018;-74
2024/04/17 06:31:48;;;;;;;6.22;5.63;;;;;;;5.81;100.00;100757.09;10796723;26;20014;-75
2024/04/17 06:36:45;;;;;;;6.30;5.70;;;;;;;5.82;100.00;100756.78;10772295;26;20014;-74
2024/04/17 06:41:42;;;;;;;7.15;5.63;;;;;;;5.98;100.00;100757.47;10777066;26;20110;-73
2024/04/17 06:46:56;;;;;;;7.95;6.30;;;;;;;6.00;100.00;100766.16;10771393;26;20005;-73
2024/04/17 06:51:54;;;;;;;7.05;5.82;;;;;;;6.00;100.00;100760.72;10797159;26;20020;-74
2024/04/17 06:56:51;;;;;;;6.30;5.00;;;;;;;6.02;100.00;100776.72;10828387;26;20109;-74
2024/04/17 07:01:48;;;;;;;7.18;5.63;;;;;;;6.08;100.00;100776.41;10794466;26;20009;-75
2024/04/17 07:06:45;;;;;;;8.88;5.70;;;;;;;6.11;100.00;100767.69;10791950;26;20002;-73
2024/04/17 07:11:42;;;;;;;6.97;6.25;;;;;;;6.05;100.00;100770.72;10825011;26;20014;-75
2024/04/17 07:16:39;;;;;;;8.60;5.72;;;;;;;6.20;100.00;100780.66;10828923;26;20474;-74
2024/04/17 07:21:37;;;;;;;8.75;5.68;;;;;;;6.37;100.00;100780.19;10814646;26;20002;-74
2024/04/17 07:26:34;;;;;;;5.78;5.25;;;;;;;6.54;100.00;100788.69;10794530;26;20049;-75
2024/04/17 07:31:32;;;;;;;6.25;5.13;;;;;;;6.74;100.00;100785.72;10838694;26;20021;-74
2024/04/17 07:36:29;;;;;;;10.05;5.30;;;;;;;6.92;100.00;100781.44;10791352;26;20937;-74
2024/04/17 07:41:27;;;;;;;9.75;5.00;;;;;;;6.99;100.00;100775.66;10790704;26;20362;-74
2024/04/17 07:46:24;;;;;;;5.35;4.85;;;;;;;7.15;100.00;100784.41;10808380;26;20348;-74
2024/04/17 07:51:21;;;;;;;6.85;5.45;;;;;;;7.30;100.00;100781.47;10863771;26;20016;-74
2024/04/17 07:56:18;;;;;;;5.40;4.85;;;;;;;7.41;100.00;100786.78;10864977;26;20515;-74
2024/04/17 08:01:16;;;;;;;7.88;4.97;;;;;;;7.34;100.00;100782.50;10854865;26;20017;-74
2024/04/17 08:06:17;;;;;;;5.60;5.05;;;;;;;7.66;100.00;100786.38;10846266;26;20440;-74
2024/04/17 08:11:14;;;;;;;8.98;5.50;;;;;;;7.75;100.00;100781.88;10862444;26;20010;-74
2024/04/17 08:16:11;;;;;;;6.45;5.57;;;;;;;7.94;100.00;100791.91;10863084;26;20001;-74
2024/04/17 08:21:09;;;;;;;5.85;5.35;;;;;;;7.98;100.00;100790.19;10849226;26;20021;-74
2024/04/17 08:26:06;;;;;;;5.22;4.70;;;;;;;8.03;100.00;100779.25;10861199;26;20010;-74
2024/04/17 08:31:03;;;;;;;5.88;4.50;;;;;;;8.09;100.00;100780.75;10813833;26;20084;-74
2024/04/17 08:36:00;;;;;;;4.53;3.80;;;;;;;8.17;100.00;100771.91;10794960;26;20464;-74
2024/04/17 08:40:58;;;;;;;6.43;4.22;;;;;;;8.25;100.00;100777.75;10844774;26;20013;-75
2024/04/17 08:45:56;;;;;;;4.13;3.72;;;;;;;8.50;100.00;100780.03;10864959;26;20063;-74
2024/04/17 08:50:55;;;;;;;5.20;3.88;;;;;;;8.57;100.00;100785.88;10865828;26;20041;-74
2024/04/17 08:55:53;;;;;;;7.55;4.10;;;;;;;8.64;100.00;100777.31;10853108;26;20045;-74
2024/04/17 09:00:51;;;;;;;4.78;4.07;;;;;;;8.94;100.00;100781.31;10816436;26;20012;-75
2024/04/17 09:05:49;;;;;;;5.25;4.75;;;;;;;8.90;100.00;100777.59;10846318;26;20009;-77
2024/04/17 09:10:51;;;;;;;4.43;4.03;;;;;;;9.02;100.00;100780.59;10785171;26;20006;-76
2024/04/17 09:15:48;;;;;;;4.65;4.25;;;;;;;9.15;100.00;100789.06;10801482;26;20002;-75
2024/04/17 09:20:45;;;;;;;4.72;4.00;;;;;;;9.16;100.00;100779.78;10795471;26;20021;-74
2024/04/17 09:25:42;;;;;;;3.75;3.45;;;;;;;9.12;100.00;100778.75;10793415;26;20079;-74
2024/04/17 09:30:43;;;;;;;4.75;4.35;;;;;;;9.37;100.00;100775.47;10799988;26;20351;-74
2024/04/17 09:35:40;;;;;;;6.75;4.13;;;;;;;9.34;100.00;100786.19;10846756;26;20020;-79
2024/04/17 09:40:37;;;;;;;8.38;4.53;;;;;;;9.92;100.00;100779.09;10814317;26;20010;-74
2024/04/17 09:45:36;;;;;;;5.13;4.30;;;;;;;9.98;100.00;100778.66;10782320;26;20020;-77
2024/04/17 09:50:33;;;;;;;5.38;4.88;;;;;;;10.56;100.00;100771.41;10776594;26;20002;-74
2024/04/17 09:55:32;;;;;;;5.57;4.28;;;;;;;11.57;100.00;100771.38;10798939;26;20001;-75
2024/04/17 10:00:29;;;;;;;4.90;4.40;;;;;;;11.37;100.00;100767.34;10811664;26;20091;-75
2024/04/17 10:05:27;;;;;;;4.88;4.45;;;;;;;12.58;83.78;100776.50;10792456;26;20002;-74
2024/04/17 10:10:26;;;;;;;4.80;4.32;;;;;;;13.74;67.25;100776.97;10853152;26;20082;-72
2024/04/17 10:15:25;;;;;;;5.95;4.93;;;;;;;14.98;70.67;100778.81;10861189;26;20055;-75
2024/04/17 10:20:29;;;;;;;9.38;5.20;;;;;;;17.65;56.51;100772.22;10780854;26;20048;-75
2024/04/17 10:25:26;;;;;;;6.30;4.60;;;;;;;12.93;54.92;100776.31;10846065;26;20130;-74
2024/04/17 10:30:37;;;;;;;5.70;4.70;;;;;;;11.20;77.36;100778.31;10782929;26;20553;-74
2024/04/17 10:35:34;;;;;;;6.93;4.53;;;;;;;12.05;87.53;100775.06;10853814;26;20535;-75
2024/04/17 10:40:32;;;;;;;4.43;4.03;;;;;;;12.06;93.05;100771.19;10794296;26;20594;-76
2024/04/17 10:45:29;;;;;;;5.75;4.18;;;;;;;13.51;86.60;100758.13;10853800;26;20116;-74
2024/04/17 10:50:27;;;;;;;4.88;4.43;;;;;;;13.37;72.87;100763.13;10797640;26;20013;-75
2024/04/17 10:55:24;;;;;;;4.32;3.92;;;;;;;13.25;70.97;100772.84;10772194;26;20037;-75
2024/04/17 11:00:22;;;;;;;5.20;4.70;;;;;;;13.65;66.68;100758.66;10803473;26;20015;-76
2024/04/17 11:05:19;;;;;;;6.40;4.38;;;;;;;13.37;68.18;100757.63;10797247;26;20014;-74
2024/04/17 11:10:17;;;;;;;10.23;4.60;;;;;;;13.09;62.72;100752.63;10850601;26;20018;-77
2024/04/17 11:15:14;;;;;;;4.32;3.75;;;;;;;13.95;58.88;100744.78;10803577;26;20021;-76
2024/04/17 11:20:11;;;;;;;4.45;3.70;;;;;;;14.71;55.85;100739.81;10791985;26;20007;-77
2024/04/17 11:25:14;;;;;;;4.53;3.95;;;;;;;13.73;62.77;100747.91;10785653;26;20002;-75
2024/04/17 11:30:18;;;;;;;6.30;4.72;;;;;;;12.51;75.73;100748.75;10817261;26;20534;-75
2024/04/17 11:35:16;;;;;;;4.50;4.10;;;;;;;12.11;86.97;100751.81;10846502;26;20075;-74
2024/04/17 11:40:14;;;;;;;5.57;4.07;;;;;;;12.11;79.79;100754.56;10787038;26;20029;-75
2024/04/17 11:45:14;;;;;;;5.63;3.83;;;;;;;12.42;81.01;100752.34;10792040;26;20005;-75
2024/04/17 11:50:12;;;;;;;5.10;3.38;;;;;;;11.82;94.28;100761.53;10803812;26;20136;-75
2024/04/17 11:55:09;;;;;;;5.40;3.80;;;;;;;11.86;100.00;100757.03;10849226;26;20727;-75
2024/04/17 12:00:07;;;;;;;4.38;3.42;;;;;;;11.77;98.46;100758.97;10787035;26;20020;-75
2024/04/17 12:05:04;;;;;;;5.05;3.75;;;;;;;11.32;89.01;100759.31;10865224;26;20008;-74
2024/04/17 12:10:01;;;;;;;3.83;3.38;;;;;;;11.37;90.07;100761.88;10856485;26;20019;-75
2024/04/17 12:15:00;;;;;;;4.00;3.60;;;;;;;11.45;86.76;100761.09;10866291;26;20012;-76
2024/04/17 12:19:57;;;;;;;5.38;3.95;;;;;;;11.47;90.78;100772.53;10837920;26;20041;-75
2024/04/17 12:30:10;;;;;;;10.00;4.28;;;;;;;10.44;100.00;100790.31;10762217;26;20018;-74
2024/04/17 12:35:08;;;;;;;4.78;4.38;;;;;;;9.78;100.00;100790.09;10843628;26;20396;-76
2024/04/17 12:40:08;;;;;;;5.25;4.10;;;;;;;10.16;100.00;100776.81;10796154;26;20055;-72
2024/04/17 12:45:05;;;;;;;7.22;4.05;;;;;;;10.59;100.00;100795.38;10789557;26;20017;-76
2024/04/17 12:50:03;;;;;;;6.60;4.32;;;;;;;11.18;100.00;100792.28;10858793;26;20375;-75
2024/04/17 12:55:00;;;;;;;7.75;4.10;;;;;;;12.34;100.00;100794.31;10804922;26;20097;-75
2024/04/17 12:59:57;;;;;;;4.38;3.97;;;;;;;12.37;100.00;100799.16;10858806;26;20083;-75
2024/04/17 13:04:54;;;;;;;5.22;4.60;;;;;;;12.65;100.00;100787.75;10773329;26;20367;-75
2024/04/17 13:09:51;;;;;;;4.72;4.20;;;;;;;12.60;100.00;100779.69;10850954;26;20880;-78
2024/04/17 13:14:49;;;;;;;4.78;3.90;;;;;;;12.22;100.00;100780.47;10816956;26;19998;-75
2024/04/17 13:19:47;;;;;;;4.60;3.92;;;;;;;13.66;100.00;100776.72;10795144;26;20025;-73
2024/04/17 13:24:44;;;;;;;5.78;4.00;;;;;;;14.17;100.00;100773.00;10805396;26;20341;-75
2024/04/17 13:29:41;;;;;;;5.25;4.10;;;;;;;14.14;100.00;100774.50;10847817;26;20005;-76
2024/04/17 13:34:39;;;;;;;5.65;4.20;;;;;;;12.59;100.00;100780.84;10805308;26;19998;-75
2024/04/17 13:39:37;;;;;;;5.10;4.13;;;;;;;12.04;100.00;100784.41;10779448;26;20096;-79
2024/04/17 13:44:34;;;;;;;5.15;3.90;;;;;;;11.78;100.00;100787.97;10780463;26;20499;-75
2024/04/17 13:49:31;;;;;;;8.55;4.20;;;;;;;11.41;100.00;100784.75;10777419;26;20083;-75
2024/04/17 13:54:28;;;;;;;6.45;3.97;;;;;;;11.23;100.00;100783.13;10778554;26;20386;-76
2024/04/17 13:59:25;;;;;;;5.20;3.58;;;;;;;12.74;100.00;100772.06;10848848;26;20086;-72
2024/04/17 14:04:22;;;;;;;5.35;3.90;;;;;;;13.97;100.00;100770.00;10788485;26;20010;-73
2024/04/17 14:09:19;;;;;;;6.93;4.60;;;;;;;14.24;99.13;100765.78;10838870;26;20481;-72
2024/04/17 14:14:17;;;;;;;5.45;4.50;;;;;;;14.07;100.00;100775.03;10786415;26;20002;-80
2024/04/17 14:19:14;;;;;;;5.45;4.70;;;;;;;13.92;100.00;100767.44;10810537;26;20056;-73
2024/04/17 14:24:11;;;;;;;4.85;4.03;;;;;;;13.80;95.60;100775.66;10790890;26;20010;-76
2024/04/17 14:29:08;;;;;;;4.65;4.13;;;;;;;13.26;94.14;100779.16;10792002;26;20009;-75
2024/04/17 14:34:05;;;;;;;5.03;3.90;;;;;;;12.95;97.48;100768.53;10858501;26;20078;-73
2024/04/17 14:39:02;;;;;;;4.53;4.10;;;;;;;12.69;100.00;100771.41;10858441;26;20083;-73
2024/04/17 14:44:00;;;;;;;5.82;4.25;;;;;;;12.00;97.75;100784.25;10794898;26;20010;-72
2024/04/17 14:48:57;;;;;;;4.35;3.95;;;;;;;11.91;99.73;100787.00;10844399;26;20013;-73
2024/04/17 14:53:54;;;;;;;4.72;4.25;;;;;;;11.26;100.00;100782.50;10804889;26;20005;-73
2024/04/17 14:58:51;;;;;;;4.72;3.92;;;;;;;11.45;100.00;100779.44;10780248;26;20395;-73
2024/04/17 15:03:52;;;;;;;4.93;3.90;;;;;;;11.34;100.00;100784.44;10773490;26;20005;-75
2024/04/17 15:08:50;;;;;;;6.70;4.57;;;;;;;11.71;100.00;100782.97;10791674;26;20005;-75
2024/04/17 15:13:47;;;;;;;7.30;4.20;;;;;;;11.81;100.00;100781.81;10803202;26;20405;-73
2024/04/17 15:18:44;;;;;;;6.30;4.18;;;;;;;11.83;100.00;100789.72;10784066;26;20113;-73
2024/04/17 15:23:46;;;;;;;3.92;3.55;;;;;;;11.87;100.00;100788.78;10774521;26;20029;-76
2024/04/17 15:28:44;;;;;;;9.48;4.38;;;;;;;12.53;100.00;100787.63;10805002;26;20005;-72
2024/04/17 15:33:43;;;;;;;5.63;4.30;;;;;;;12.63;100.00;100799.03;10836768;26;20013;-73
2024/04/17 15:38:40;;;;;;;5.90;5.03;;;;;;;12.38;100.00;100806.22;10849486;26;20009;-74
2024/04/17 15:43:41;;;;;;;5.85;4.50;;;;;;;11.91;100.00;100808.94;10815914;26;20009;-73
2024/04/17 15:48:38;;;;;;;4.50;4.07;;;;;;;11.73;100.00;100815.53;10830415;26;20634;-73
2024/04/17 15:53:37;;;;;;;5.35;4.47;;;;;;;11.14;100.00;100819.50;10811466;26;20595;-73
2024/04/17 15:58:34;;;;;;;5.60;4.40;;;;;;;10.89;100.00;100812.03;10826098;26;20510;-73
2024/04/17 16:03:32;;;;;;;4.75;4.10;;;;;;;10.51;100.00;100823.47;10857173;26;20079;-73
2024/04/17 16:08:29;;;;;;;9.40;4.93;;;;;;;10.34;100.00;100839.78;10843943;26;20341;-73
2024/04/17 16:13:27;;;;;;;6.63;5.03;;;;;;;10.18;100.00;100848.34;10870855;26;20018;-76
2024/04/17 16:18:25;;;;;;;7.15;5.05;;;;;;;10.06;100.00;100853.56;10858937;26;20803;-77
2024/04/17 16:23:24;;;;;;;6.93;5.05;;;;;;;9.85;100.00;100866.91;10821915;26;20013;-79
2024/04/17 16:28:21;;;;;;;5.10;4.70;;;;;;;9.99;100.00;100855.94;10849698;26;20020;-74
2024/04/17 16:33:18;;;;;;;5.70;5.30;;;;;;;9.27;100.00;100876.66;10855643;26;20110;-73
2024/04/17 16:38:16;;;;;;;6.13;5.63;;;;;;;9.06;100.00;100896.16;10834729;26;20482;-74
2024/04/17 16:43:13;;;;;;;7.75;6.65;;;;;;;8.96;100.00;100907.28;10836178;26;20021;-74
2024/04/17 16:48:10;;;;;;;7.53;6.78;;;;;;;8.63;100.00;100931.03;10845206;26;20056;-72
2024/04/17 16:53:07;;;;;;;7.72;7.03;;;;;;;8.39;100.00;100942.06;10837717;26;20009;-73
2024/04/17 16:58:04;;;;;;;7.85;7.25;;;;;;;8.35;100.00;100957.38;10853988;26;20004;-72
2024/04/17 17:03:01;;;;;;;7.82;7.13;;;;;;;8.26;100.00;100959.16;10843845;26;20450;-73
2024/04/17 17:07:59;;;;;;;8.25;7.45;;;;;;;8.28;100.00;100965.13;10838019;26;20001;-76
2024/04/17 17:13:00;;;;;;;7.28;6.60;;;;;;;8.21;100.00;100969.03;10845174;26;20419;-73
2024/04/17 17:17:57;;;;;;;6.90;6.20;;;;;;;8.19;100.00;100971.25;10844285;26;20448;-72
2024/04/17 17:22:55;;;;;;;6.85;6.28;;;;;;;8.12;100.00;100976.25;10842920;26;20449;-73
2024/04/17 17:27:52;;;;;;;7.50;6.72;;;;;;;8.11;100.00;100974.63;10832030;26;20020;-73
2024/04/17 17:32:49;;;;;;;7.22;6.63;;;;;;;8.13;100.00;100972.41;10831877;26;20461;-75
2024/04/17 17:37:49;;;;;;;7.60;6.90;;;;;;;8.12;100.00;100976.25;10839932;26;20001;-73
2024/04/17 17:42:46;;;;;;;9.15;6.57;;;;;;;8.05;100.00;100975.78;10847615;26;20009;-74
2024/04/17 17:47:48;;;;;;;7.85;7.07;;;;;;;8.06;100.00;100985.59;10843410;26;20009;-72
2024/04/17 17:52:45;;;;;;;9.55;6.53;;;;;;;8.02;100.00;100998.16;10873170;26;20655;-72
2024/04/17 17:57:42;;;;;;;9.05;7.93;;;;;;;7.95;100.00;100998.53;10830395;26;20036;-74
2024/04/17 18:02:40;;;;;;;7.93;6.90;;;;;;;7.83;100.00;100994.63;10835441;26;20104;-73
2024/04/17 18:07:39;;;;;;;7.60;6.90;;;;;;;7.82;100.00;101004.72;10820242;26;20006;-73
2024/04/17 18:12:36;;;;;;;7.05;6.45;;;;;;;7.80;100.00;101013.16;10838610;26;20056;-74
2024/04/17 18:17:34;;;;;;;7.30;6.60;;;;;;;7.82;100.00;101020.22;10830980;26;20298;-73
2024/04/17 18:22:31;;;;;;;7.28;6.57;;;;;;;7.87;100.00;101028.34;10826828;26;20460;-78
2024/04/17 18:27:28;;;;;;;7.60;6.95;;;;;;;7.75;100.00;101028.72;10838333;26;20082;-74
2024/04/17 18:32:26;;;;;;;7.47;6.80;;;;;;;7.69;100.00;101028.00;10840735;26;20071;-73
2024/04/17 18:37:23;;;;;;;8.80;7.10;;;;;;;7.67;100.00;101041.09;10840637;26;20008;-75
2024/04/17 18:42:20;;;;;;;8.00;6.82;;;;;;;7.56;100.00;101045.81;10851051;26;20073;-73
2024/04/17 18:47:17;;;;;;;7.53;6.85;;;;;;;7.54;100.00;101052.66;10842783;26;20452;-74
2024/04/17 18:52:14;;;;;;;7.25;6.65;;;;;;;7.41;100.00;101064.25;10848523;26;20085;-74
2024/04/17 18:57:11;;;;;;;7.18;6.47;;;;;;;7.53;100.00;101072.81;10853395;26;20005;-73
2024/04/17 19:02:09;;;;;;;7.10;6.45;;;;;;;7.31;100.00;101071.41;10860434;26;20113;-73
2024/04/17 19:07:06;;;;;;;6.60;6.00;;;;;;;7.37;100.00;101075.69;10839328;26;20494;-73
2024/04/17 19:12:03;;;;;;;6.15;5.65;;;;;;;7.47;100.00;101069.34;10870750;26;20001;-74
2024/04/17 19:17:00;;;;;;;7.15;6.43;;;;;;;7.29;100.00;101068.16;10849429;26;20020;-74
2024/04/17 19:21:58;;;;;;;7.13;6.15;;;;;;;7.40;100.00;101073.50;10859725;26;20082;-73
2024/04/17 19:26:55;;;;;;;6.78;6.18;;;;;;;7.29;100.00;101073.59;10839156;26;20690;-79
2024/04/17 19:31:52;;;;;;;7.53;6.80;;;;;;;7.14;100.00;101081.91;10842322;26;20072;-74
2024/04/17 19:36:49;;;;;;;7.50;6.75;;;;;;;7.05;100.00;101083.59;10825223;26;20005;-72
2024/04/17 19:41:46;;;;;;;7.85;6.75;;;;;;;6.95;100.00;101085.31;10805134;26;20001;-72
2024/04/17 19:46:44;;;;;;;7.43;6.82;;;;;;;6.93;100.00;101082.06;10812994;26;20020;-72
2024/04/17 19:51:41;;;;;;;7.25;6.68;;;;;;;6.82;100.00;101091.38;10770416;26;20013;-77
2024/04/17 19:56:38;;;;;;;7.90;7.30;;;;;;;6.65;100.00;101093.69;10793567;26;20004;-74
2024/04/17 20:01:44;;;;;;;8.80;7.30;;;;;;;6.50;100.00;101100.84;10826006;26;20001;-75
2024/04/17 20:06:41;;;;;;;8.52;7.82;;;;;;;6.38;100.00;101113.94;10758996;26;20041;-71
2024/04/17 20:11:40;;;;;;;11.05;7.75;;;;;;;6.27;100.00;101117.84;10810027;26;20766;-73
2024/04/17 20:16:37;;;;;;;8.23;7.40;;;;;;;6.18;100.00;101119.50;10755208;26;20038;-73
2024/04/17 20:21:34;;;;;;;8.35;7.65;;;;;;;6.09;100.00;101122.78;10752068;26;20006;-73
2024/04/17 20:26:31;;;;;;;9.00;8.20;;;;;;;5.95;100.00;101127.19;10778192;26;20357;-73
2024/04/17 20:31:28;;;;;;;8.40;7.60;;;;;;;5.91;100.00;101136.94;10797024;26;20042;-73
2024/04/17 20:36:26;;;;;;;9.00;7.75;;;;;;;5.84;100.00;101128.25;10805718;26;20031;-72
2024/04/17 20:41:23;;;;;;;9.38;7.68;;;;;;;5.82;100.00;101133.16;10787314;26;20453;-74
2024/04/17 20:46:20;;;;;;;8.32;7.53;;;;;;;5.87;100.00;101135.84;10775384;26;20021;-72
2024/04/17 20:51:18;;;;;;;7.72;7.07;;;;;;;5.71;100.00;101154.09;10777109;26;19998;-71
2024/04/17 20:56:15;;;;;;;8.10;7.40;;;;;;;5.70;100.00;101150.53;10780960;26;20005;-74
2024/04/17 21:01:12;;;;;;;9.00;7.80;;;;;;;5.61;100.00;101157.59;10807389;26;20012;-72
2024/04/17 21:06:12;;;;;;;8.40;7.70;;;;;;;5.54;100.00;101154.38;10835004;26;20022;-72
2024/04/17 21:11:14;;;;;;;9.07;7.95;;;;;;;5.48;100.00;101155.47;10777993;26;19997;-72
2024/04/17 21:16:23;;;;;;;8.55;7.57;;;;;;;5.47;100.00;101164.69;10781970;26;20020;-73
2024/04/17 21:21:20;;;;;;;9.00;8.10;;;;;;;5.38;100.00;101171.75;10784328;26;20009;-74
2024/04/17 21:26:17;;;;;;;7.93;7.22;;;;;;;5.34;100.00;101192.34;10793548;26;20089;-73
2024/04/17 21:31:16;;;;;;;12.20;7.72;;;;;;;5.26;100.00;101186.38;10809657;26;20016;-71
2024/04/17 21:36:14;;;;;;;8.13;7.32;;;;;;;5.22;100.00;101195.31;10829232;26;20000;-71
2024/04/17 21:41:11;;;;;;;11.65;8.13;;;;;;;5.16;100.00;101196.41;10834094;26;20454;-72
2024/04/17 21:46:12;;;;;;;8.68;7.60;;;;;;;5.14;100.00;101212.13;10791989;26;20038;-71
2024/04/17 21:51:10;;;;;;;8.65;7.40;;;;;;;5.05;100.00;101214.56;10806140;26;20016;-73
2024/04/17 21:56:09;;;;;;;8.90;6.70;;;;;;;5.06;100.00;101208.88;10847848;26;20001;-73
2024/04/17 22:01:08;;;;;;;6.80;6.20;;;;;;;5.03;100.00;101224.84;10822784;26;20016;-73
2024/04/17 22:06:07;;;;;;;8.40;6.43;;;;;;;4.96;100.00;101224.28;10796867;26;20052;-72
2024/04/17 22:11:04;;;;;;;6.85;6.25;;;;;;;4.96;100.00;101224.28;10837494;26;20005;-72
2024/04/17 22:16:01;;;;;;;8.52;7.15;;;;;;;4.87;100.00;101236.72;10784925;26;20434;-74
2024/04/17 22:20:59;;;;;;;7.97;7.18;;;;;;;4.91;100.00;101237.84;10772222;26;20014;-73
2024/04/17 22:25:56;;;;;;;8.52;7.03;;;;;;;4.81;100.00;101239.44;10815993;26;20009;-72
2024/04/17 22:30:53;;;;;;;7.45;6.75;;;;;;;4.70;100.00;101245.88;10804178;26;20060;-72
2024/04/17 22:35:51;;;;;;;7.43;6.72;;;;;;;4.73;100.00;101253.47;10785941;26;20399;-73
2024/04/17 22:40:48;;;;;;;10.23;8.20;;;;;;;4.69;100.00;101255.09;10830224;26;20014;-73
2024/04/17 22:45:46;;;;;;;8.05;6.85;;;;;;;4.64;100.00;101255.06;10794357;26;20025;-71